sensor_id;sensor_type;location;lat;lon;timestamp;P1;durP1;ratioP1;P2;durP2;ratioP2
65033;SDS011;51601;51.356;12.458;2022-09-14T00:03:30;12.50;;;8.30;;
65033;SDS011;51601;51.356;12.458;2022-09-14T00:07:44;14.13;;;8.40;;
65033;SDS011;51601;51.356;12.458;2022-09-14T00:11:57;16.67;;;10.05;;
65033;SDS011;51601;51.356;12.458;2022-09-14T00:16:13;15.23;;;9.70;;
65033;SDS011;51601;51.356;12.458;2022-09-14T00:20:29;12.50;;;8.95;;
65033;SDS011;51601;51.356;12.458;2022-09-14T00:24:43;14.48;;;9.20;;
65033;SDS011;51601;51.356;12.458;2022-09-14T00:28:58;13.37;;;9.50;;
65033;SDS011;51601;51.356;12.458;2022-09-14T00:33:16;12.55;;;9.20;;
65033;SDS011;51601;51.356;12.458;2022-09-14T00:37:30;13.73;;;9.18;;
65033;SDS011;51601;51.356;12.458;2022-09-14T00:41:46;14.07;;;9.37;;
65033;SDS011;51601;51.356;12.458;2022-09-14T00:46:01;14.80;;;9.75;;
65033;SDS011;51601;51.356;12.458;2022-09-14T00:50:17;12.38;;;8.07;;
65033;SDS011;51601;51.356;12.458;2022-09-14T00:54:32;14.65;;;8.65;;
65033;SDS011;51601;51.356;12.458;2022-09-14T00:58:47;14.13;;;8.10;;
65033;SDS011;51601;51.356;12.458;2022-09-14T01:03:03;11.77;;;7.90;;
65033;SDS011;51601;51.356;12.458;2022-09-14T01:07:21;14.40;;;7.72;;
65033;SDS011;51601;51.356;12.458;2022-09-14T01:11:53;11.73;;;7.80;;
65033;SDS011;51601;51.356;12.458;2022-09-14T01:16:17;12.73;;;8.18;;
65033;SDS011;51601;51.356;12.458;2022-09-14T01:20:37;14.98;;;10.07;;
65033;SDS011;51601;51.356;12.458;2022-09-14T01:24:58;16.13;;;9.60;;
65033;SDS011;51601;51.356;12.458;2022-09-14T01:29:25;15.38;;;9.35;;
65033;SDS011;51601;51.356;12.458;2022-09-14T01:33:44;16.83;;;9.65;;
65033;SDS011;51601;51.356;12.458;2022-09-14T01:38:06;13.60;;;9.15;;
65033;SDS011;51601;51.356;12.458;2022-09-14T01:42:24;14.87;;;8.83;;
65033;SDS011;51601;51.356;12.458;2022-09-14T01:46:42;15.07;;;9.07;;
65033;SDS011;51601;51.356;12.458;2022-09-14T01:50:59;16.42;;;8.75;;
65033;SDS011;51601;51.356;12.458;2022-09-14T01:55:17;13.97;;;8.90;;
65033;SDS011;51601;51.356;12.458;2022-09-14T01:59:35;12.15;;;7.97;;
65033;SDS011;51601;51.356;12.458;2022-09-14T02:03:55;12.65;;;7.65;;
65033;SDS011;51601;51.356;12.458;2022-09-14T02:08:11;14.67;;;8.00;;
65033;SDS011;51601;51.356;12.458;2022-09-14T02:12:25;14.02;;;8.18;;
65033;SDS011;51601;51.356;12.458;2022-09-14T02:16:39;14.32;;;8.43;;
65033;SDS011;51601;51.356;12.458;2022-09-14T02:20:58;13.20;;;8.20;;
65033;SDS011;51601;51.356;12.458;2022-09-14T02:25:15;11.77;;;7.63;;
65033;SDS011;51601;51.356;12.458;2022-09-14T02:29:29;13.57;;;8.50;;
65033;SDS011;51601;51.356;12.458;2022-09-14T02:33:44;16.25;;;8.15;;
65033;SDS011;51601;51.356;12.458;2022-09-14T02:38:07;15.67;;;9.00;;
65033;SDS011;51601;51.356;12.458;2022-09-14T02:42:28;13.85;;;8.52;;
65033;SDS011;51601;51.356;12.458;2022-09-14T02:46:51;15.05;;;9.10;;
65033;SDS011;51601;51.356;12.458;2022-09-14T02:51:13;13.00;;;8.00;;
65033;SDS011;51601;51.356;12.458;2022-09-14T02:55:34;13.88;;;8.88;;
65033;SDS011;51601;51.356;12.458;2022-09-14T02:59:52;12.57;;;7.22;;
65033;SDS011;51601;51.356;12.458;2022-09-14T03:04:06;12.10;;;7.10;;
65033;SDS011;51601;51.356;12.458;2022-09-14T03:08:20;12.13;;;5.70;;
65033;SDS011;51601;51.356;12.458;2022-09-14T03:12:35;11.85;;;6.00;;
65033;SDS011;51601;51.356;12.458;2022-09-14T03:16:50;10.70;;;5.10;;
65033;SDS011;51601;51.356;12.458;2022-09-14T03:21:04;8.80;;;4.87;;
65033;SDS011;51601;51.356;12.458;2022-09-14T03:25:18;12.38;;;5.40;;
65033;SDS011;51601;51.356;12.458;2022-09-14T03:29:35;9.80;;;4.93;;
65033;SDS011;51601;51.356;12.458;2022-09-14T03:33:50;10.07;;;4.80;;
65033;SDS011;51601;51.356;12.458;2022-09-14T03:38:05;10.52;;;5.13;;
65033;SDS011;51601;51.356;12.458;2022-09-14T03:42:19;10.23;;;4.68;;
65033;SDS011;51601;51.356;12.458;2022-09-14T03:46:34;11.93;;;4.57;;
65033;SDS011;51601;51.356;12.458;2022-09-14T03:50:48;10.93;;;5.73;;
65033;SDS011;51601;51.356;12.458;2022-09-14T03:55:03;10.18;;;5.10;;
65033;SDS011;51601;51.356;12.458;2022-09-14T03:59:18;11.43;;;4.68;;
65033;SDS011;51601;51.356;12.458;2022-09-14T04:03:34;11.53;;;4.90;;
65033;SDS011;51601;51.356;12.458;2022-09-14T04:07:48;14.05;;;4.82;;
65033;SDS011;51601;51.356;12.458;2022-09-14T04:12:02;10.32;;;4.78;;
65033;SDS011;51601;51.356;12.458;2022-09-14T04:16:16;9.23;;;4.57;;
65033;SDS011;51601;51.356;12.458;2022-09-14T04:20:33;12.00;;;4.68;;
65033;SDS011;51601;51.356;12.458;2022-09-14T04:24:47;9.38;;;4.88;;
65033;SDS011;51601;51.356;12.458;2022-09-14T04:29:01;10.43;;;4.47;;
65033;SDS011;51601;51.356;12.458;2022-09-14T04:33:15;10.67;;;4.60;;
65033;SDS011;51601;51.356;12.458;2022-09-14T04:37:31;9.27;;;4.40;;
65033;SDS011;51601;51.356;12.458;2022-09-14T04:41:45;13.93;;;4.20;;
65033;SDS011;51601;51.356;12.458;2022-09-14T04:46:00;9.70;;;4.40;;
65033;SDS011;51601;51.356;12.458;2022-09-14T04:50:15;10.10;;;4.60;;
65033;SDS011;51601;51.356;12.458;2022-09-14T04:54:30;12.35;;;4.82;;
65033;SDS011;51601;51.356;12.458;2022-09-14T04:58:45;8.10;;;4.80;;
65033;SDS011;51601;51.356;12.458;2022-09-14T05:03:03;11.18;;;4.20;;
65033;SDS011;51601;51.356;12.458;2022-09-14T05:07:17;12.68;;;4.47;;
65033;SDS011;51601;51.356;12.458;2022-09-14T05:11:33;10.40;;;4.10;;
65033;SDS011;51601;51.356;12.458;2022-09-14T05:15:48;11.43;;;4.30;;
65033;SDS011;51601;51.356;12.458;2022-09-14T05:20:03;13.15;;;4.50;;
65033;SDS011;51601;51.356;12.458;2022-09-14T05:24:18;11.30;;;4.38;;
65033;SDS011;51601;51.356;12.458;2022-09-14T05:28:33;13.07;;;4.97;;
65033;SDS011;51601;51.356;12.458;2022-09-14T05:32:48;14.02;;;4.25;;
65033;SDS011;51601;51.356;12.458;2022-09-14T05:37:06;10.32;;;3.97;;
65033;SDS011;51601;51.356;12.458;2022-09-14T05:41:20;10.83;;;4.27;;
65033;SDS011;51601;51.356;12.458;2022-09-14T05:45:35;11.25;;;4.10;;
65033;SDS011;51601;51.356;12.458;2022-09-14T05:49:49;10.10;;;4.20;;
65033;SDS011;51601;51.356;12.458;2022-09-14T05:54:03;9.73;;;3.67;;
65033;SDS011;51601;51.356;12.458;2022-09-14T05:58:22;12.63;;;4.00;;
65033;SDS011;51601;51.356;12.458;2022-09-14T06:02:37;12.90;;;3.40;;
65033;SDS011;51601;51.356;12.458;2022-09-14T06:06:54;10.52;;;3.80;;
65033;SDS011;51601;51.356;12.458;2022-09-14T06:11:28;9.23;;;3.40;;
65033;SDS011;51601;51.356;12.458;2022-09-14T06:15:43;9.85;;;3.08;;
65033;SDS011;51601;51.356;12.458;2022-09-14T06:19:58;7.82;;;3.20;;
65033;SDS011;51601;51.356;12.458;2022-09-14T06:24:15;14.20;;;3.53;;
65033;SDS011;51601;51.356;12.458;2022-09-14T06:28:30;11.57;;;3.50;;
65033;SDS011;51601;51.356;12.458;2022-09-14T06:32:44;12.05;;;3.33;;
65033;SDS011;51601;51.356;12.458;2022-09-14T06:36:59;11.05;;;3.90;;
65033;SDS011;51601;51.356;12.458;2022-09-14T06:41:14;12.63;;;3.63;;
65033;SDS011;51601;51.356;12.458;2022-09-14T06:45:33;8.63;;;3.47;;
65033;SDS011;51601;51.356;12.458;2022-09-14T06:49:48;9.63;;;3.67;;
65033;SDS011;51601;51.356;12.458;2022-09-14T06:54:03;9.30;;;3.50;;
65033;SDS011;51601;51.356;12.458;2022-09-14T06:58:18;13.85;;;3.30;;
65033;SDS011;51601;51.356;12.458;2022-09-14T07:02:31;13.75;;;3.60;;
65033;SDS011;51601;51.356;12.458;2022-09-14T07:06:46;14.00;;;3.30;;
65033;SDS011;51601;51.356;12.458;2022-09-14T07:11:02;7.22;;;3.20;;
65033;SDS011;51601;51.356;12.458;2022-09-14T07:15:17;8.63;;;2.72;;
65033;SDS011;51601;51.356;12.458;2022-09-14T07:19:31;7.80;;;2.90;;
65033;SDS011;51601;51.356;12.458;2022-09-14T07:23:45;7.33;;;2.40;;
65033;SDS011;51601;51.356;12.458;2022-09-14T07:28:01;10.85;;;2.72;;
65033;SDS011;51601;51.356;12.458;2022-09-14T07:32:15;7.55;;;2.50;;
65033;SDS011;51601;51.356;12.458;2022-09-14T07:36:29;12.13;;;2.80;;
65033;SDS011;51601;51.356;12.458;2022-09-14T07:40:46;9.63;;;2.60;;
65033;SDS011;51601;51.356;12.458;2022-09-14T07:45:01;8.13;;;2.30;;
65033;SDS011;51601;51.356;12.458;2022-09-14T07:49:15;9.67;;;2.40;;
65033;SDS011;51601;51.356;12.458;2022-09-14T07:53:29;9.05;;;2.72;;
65033;SDS011;51601;51.356;12.458;2022-09-14T07:57:43;9.63;;;2.60;;
65033;SDS011;51601;51.356;12.458;2022-09-14T08:02:09;11.15;;;2.65;;
65033;SDS011;51601;51.356;12.458;2022-09-14T08:06:23;10.40;;;3.00;;
65033;SDS011;51601;51.356;12.458;2022-09-14T08:10:38;11.77;;;3.72;;
65033;SDS011;51601;51.356;12.458;2022-09-14T08:14:51;10.82;;;3.10;;
65033;SDS011;51601;51.356;12.458;2022-09-14T08:19:09;10.43;;;3.30;;
65033;SDS011;51601;51.356;12.458;2022-09-14T08:23:24;10.50;;;2.75;;
65033;SDS011;51601;51.356;12.458;2022-09-14T08:27:38;11.15;;;2.75;;
65033;SDS011;51601;51.356;12.458;2022-09-14T08:31:51;11.60;;;2.63;;
65033;SDS011;51601;51.356;12.458;2022-09-14T08:36:07;13.85;;;3.67;;
65033;SDS011;51601;51.356;12.458;2022-09-14T08:40:22;9.13;;;2.90;;
65033;SDS011;51601;51.356;12.458;2022-09-14T08:44:36;10.00;;;2.70;;
65033;SDS011;51601;51.356;12.458;2022-09-14T08:48:54;8.00;;;2.60;;
65033;SDS011;51601;51.356;12.458;2022-09-14T08:53:09;10.98;;;3.30;;
65033;SDS011;51601;51.356;12.458;2022-09-14T08:57:27;7.88;;;2.63;;
65033;SDS011;51601;51.356;12.458;2022-09-14T09:01:48;10.03;;;2.47;;
65033;SDS011;51601;51.356;12.458;2022-09-14T09:06:10;9.07;;;2.45;;
65033;SDS011;51601;51.356;12.458;2022-09-14T09:10:30;12.02;;;2.78;;
65033;SDS011;51601;51.356;12.458;2022-09-14T09:14:47;9.00;;;2.53;;
65033;SDS011;51601;51.356;12.458;2022-09-14T09:19:05;12.55;;;3.35;;
65033;SDS011;51601;51.356;12.458;2022-09-14T09:23:23;8.60;;;2.72;;
65033;SDS011;51601;51.356;12.458;2022-09-14T09:27:42;9.85;;;2.55;;
65033;SDS011;51601;51.356;12.458;2022-09-14T09:31:56;15.10;;;3.47;;
65033;SDS011;51601;51.356;12.458;2022-09-14T09:36:44;10.73;;;2.50;;
65033;SDS011;51601;51.356;12.458;2022-09-14T09:41:00;10.57;;;2.28;;
65033;SDS011;51601;51.356;12.458;2022-09-14T09:45:20;11.17;;;2.30;;
65033;SDS011;51601;51.356;12.458;2022-09-14T09:49:35;7.43;;;2.22;;
65033;SDS011;51601;51.356;12.458;2022-09-14T09:53:51;9.32;;;2.50;;
65033;SDS011;51601;51.356;12.458;2022-09-14T09:58:20;11.00;;;2.50;;
65033;SDS011;51601;51.356;12.458;2022-09-14T10:02:40;8.73;;;2.55;;
65033;SDS011;51601;51.356;12.458;2022-09-14T10:06:54;7.93;;;2.10;;
65033;SDS011;51601;51.356;12.458;2022-09-14T10:15:40;9.13;;;2.20;;
65033;SDS011;51601;51.356;12.458;2022-09-14T10:19:55;9.80;;;2.47;;
65033;SDS011;51601;51.356;12.458;2022-09-14T10:24:15;8.05;;;2.00;;
65033;SDS011;51601;51.356;12.458;2022-09-14T10:28:32;7.37;;;2.10;;
65033;SDS011;51601;51.356;12.458;2022-09-14T10:32:50;8.70;;;2.33;;
65033;SDS011;51601;51.356;12.458;2022-09-14T10:37:27;5.75;;;2.10;;
65033;SDS011;51601;51.356;12.458;2022-09-14T10:41:47;7.37;;;2.30;;
65033;SDS011;51601;51.356;12.458;2022-09-14T10:46:06;6.80;;;2.10;;
65033;SDS011;51601;51.356;12.458;2022-09-14T10:50:32;8.05;;;2.20;;
65033;SDS011;51601;51.356;12.458;2022-09-14T10:55:04;9.48;;;2.50;;
65033;SDS011;51601;51.356;12.458;2022-09-14T10:59:33;11.07;;;2.87;;
65033;SDS011;51601;51.356;12.458;2022-09-14T11:03:56;9.23;;;2.78;;
65033;SDS011;51601;51.356;12.458;2022-09-14T11:08:27;7.75;;;2.65;;
65033;SDS011;51601;51.356;12.458;2022-09-14T11:12:48;10.80;;;3.10;;
65033;SDS011;51601;51.356;12.458;2022-09-14T11:21:51;13.55;;;4.18;;
65033;SDS011;51601;51.356;12.458;2022-09-14T11:26:13;9.70;;;3.40;;
65033;SDS011;51601;51.356;12.458;2022-09-14T11:30:33;10.05;;;3.78;;
65033;SDS011;51601;51.356;12.458;2022-09-14T11:34:53;9.32;;;4.18;;
65033;SDS011;51601;51.356;12.458;2022-09-14T11:39:12;12.88;;;4.70;;
65033;SDS011;51601;51.356;12.458;2022-09-14T11:43:33;12.00;;;3.90;;
65033;SDS011;51601;51.356;12.458;2022-09-14T11:47:56;13.95;;;4.10;;
65033;SDS011;51601;51.356;12.458;2022-09-14T11:52:15;9.50;;;3.65;;
65033;SDS011;51601;51.356;12.458;2022-09-14T11:56:31;8.97;;;3.17;;
65033;SDS011;51601;51.356;12.458;2022-09-14T12:01:00;11.00;;;4.03;;
65033;SDS011;51601;51.356;12.458;2022-09-14T12:05:37;10.73;;;3.97;;
65033;SDS011;51601;51.356;12.458;2022-09-14T12:09:52;10.30;;;3.23;;
65033;SDS011;51601;51.356;12.458;2022-09-14T12:14:13;9.23;;;3.47;;
65033;SDS011;51601;51.356;12.458;2022-09-14T12:18:35;10.45;;;3.67;;
65033;SDS011;51601;51.356;12.458;2022-09-14T12:22:52;11.82;;;3.85;;
65033;SDS011;51601;51.356;12.458;2022-09-14T12:27:19;10.40;;;3.67;;
65033;SDS011;51601;51.356;12.458;2022-09-14T12:31:36;10.23;;;4.53;;
65033;SDS011;51601;51.356;12.458;2022-09-14T12:36:54;11.82;;;3.78;;
65033;SDS011;51601;51.356;12.458;2022-09-14T12:41:55;11.90;;;5.10;;
65033;SDS011;51601;51.356;12.458;2022-09-14T12:46:08;13.18;;;4.32;;
65033;SDS011;51601;51.356;12.458;2022-09-14T12:50:23;10.90;;;4.32;;
65033;SDS011;51601;51.356;12.458;2022-09-14T12:54:45;11.80;;;3.90;;
65033;SDS011;51601;51.356;12.458;2022-09-14T12:59:15;9.55;;;4.55;;
65033;SDS011;51601;51.356;12.458;2022-09-14T13:03:46;12.80;;;4.28;;
65033;SDS011;51601;51.356;12.458;2022-09-14T13:08:06;10.63;;;4.60;;
65033;SDS011;51601;51.356;12.458;2022-09-14T13:12:22;9.77;;;4.70;;
65033;SDS011;51601;51.356;12.458;2022-09-14T13:16:43;13.27;;;4.65;;
65033;SDS011;51601;51.356;12.458;2022-09-14T13:21:02;12.90;;;5.10;;
65033;SDS011;51601;51.356;12.458;2022-09-14T13:25:30;9.73;;;4.57;;
65033;SDS011;51601;51.356;12.458;2022-09-14T13:29:45;10.27;;;4.68;;
65033;SDS011;51601;51.356;12.458;2022-09-14T13:34:01;9.05;;;3.92;;
65033;SDS011;51601;51.356;12.458;2022-09-14T13:38:17;10.00;;;4.10;;
65033;SDS011;51601;51.356;12.458;2022-09-14T13:42:33;11.05;;;4.00;;
65033;SDS011;51601;51.356;12.458;2022-09-14T13:46:47;11.60;;;4.47;;
65033;SDS011;51601;51.356;12.458;2022-09-14T13:51:03;10.65;;;4.60;;
65033;SDS011;51601;51.356;12.458;2022-09-14T13:55:20;8.77;;;3.83;;
65033;SDS011;51601;51.356;12.458;2022-09-14T13:59:36;10.50;;;4.10;;
65033;SDS011;51601;51.356;12.458;2022-09-14T14:04:20;10.13;;;3.78;;
65033;SDS011;51601;51.356;12.458;2022-09-14T14:08:39;10.30;;;4.20;;
65033;SDS011;51601;51.356;12.458;2022-09-14T14:12:53;9.25;;;4.43;;
65033;SDS011;51601;51.356;12.458;2022-09-14T14:17:29;13.55;;;4.55;;
65033;SDS011;51601;51.356;12.458;2022-09-14T14:21:47;11.03;;;4.20;;
65033;SDS011;51601;51.356;12.458;2022-09-14T14:26:09;15.55;;;4.30;;
65033;SDS011;51601;51.356;12.458;2022-09-14T14:30:26;15.05;;;4.90;;
65033;SDS011;51601;51.356;12.458;2022-09-14T14:34:41;10.52;;;4.28;;
65033;SDS011;51601;51.356;12.458;2022-09-14T14:38:54;11.73;;;4.70;;
65033;SDS011;51601;51.356;12.458;2022-09-14T14:43:11;9.73;;;4.97;;
65033;SDS011;51601;51.356;12.458;2022-09-14T14:47:33;10.02;;;4.57;;
65033;SDS011;51601;51.356;12.458;2022-09-14T14:51:47;12.07;;;5.27;;
65033;SDS011;51601;51.356;12.458;2022-09-14T14:56:01;14.52;;;5.20;;
65033;SDS011;51601;51.356;12.458;2022-09-14T15:00:17;12.43;;;5.13;;
65033;SDS011;51601;51.356;12.458;2022-09-14T15:04:32;13.23;;;5.60;;
65033;SDS011;51601;51.356;12.458;2022-09-14T15:08:46;12.57;;;5.88;;
65033;SDS011;51601;51.356;12.458;2022-09-14T15:13:04;11.90;;;5.88;;
65033;SDS011;51601;51.356;12.458;2022-09-14T15:17:19;11.63;;;5.53;;
65033;SDS011;51601;51.356;12.458;2022-09-14T15:21:33;11.83;;;5.77;;
65033;SDS011;51601;51.356;12.458;2022-09-14T15:25:49;14.45;;;5.30;;
65033;SDS011;51601;51.356;12.458;2022-09-14T15:30:04;13.48;;;5.78;;
65033;SDS011;51601;51.356;12.458;2022-09-14T15:34:21;12.27;;;6.10;;
65033;SDS011;51601;51.356;12.458;2022-09-14T15:38:35;13.10;;;5.72;;
65033;SDS011;51601;51.356;12.458;2022-09-14T15:42:49;12.13;;;5.15;;
65033;SDS011;51601;51.356;12.458;2022-09-14T15:47:03;13.73;;;6.33;;
65033;SDS011;51601;51.356;12.458;2022-09-14T15:51:19;11.35;;;5.90;;
65033;SDS011;51601;51.356;12.458;2022-09-14T15:55:33;13.57;;;6.43;;
65033;SDS011;51601;51.356;12.458;2022-09-14T15:59:47;14.50;;;6.32;;
65033;SDS011;51601;51.356;12.458;2022-09-14T16:04:01;13.23;;;5.70;;
65033;SDS011;51601;51.356;12.458;2022-09-14T16:08:24;16.88;;;6.00;;
65033;SDS011;51601;51.356;12.458;2022-09-14T16:12:38;14.40;;;5.90;;
65033;SDS011;51601;51.356;12.458;2022-09-14T16:16:54;11.83;;;6.00;;
65033;SDS011;51601;51.356;12.458;2022-09-14T16:21:13;14.50;;;6.00;;
65033;SDS011;51601;51.356;12.458;2022-09-14T16:25:29;13.10;;;5.80;;
65033;SDS011;51601;51.356;12.458;2022-09-14T16:29:43;12.13;;;5.20;;
65033;SDS011;51601;51.356;12.458;2022-09-14T16:33:58;12.20;;;5.22;;
65033;SDS011;51601;51.356;12.458;2022-09-14T16:38:13;15.23;;;5.75;;
65033;SDS011;51601;51.356;12.458;2022-09-14T16:42:28;14.52;;;5.88;;
65033;SDS011;51601;51.356;12.458;2022-09-14T16:46:43;12.60;;;5.73;;
65033;SDS011;51601;51.356;12.458;2022-09-14T16:51:00;12.38;;;5.38;;
65033;SDS011;51601;51.356;12.458;2022-09-14T16:55:14;13.20;;;5.82;;
65033;SDS011;51601;51.356;12.458;2022-09-14T16:59:30;15.47;;;6.37;;
65033;SDS011;51601;51.356;12.458;2022-09-14T17:03:45;14.18;;;6.80;;
65033;SDS011;51601;51.356;12.458;2022-09-14T17:08:01;13.90;;;5.85;;
65033;SDS011;51601;51.356;12.458;2022-09-14T17:12:14;16.10;;;6.63;;
65033;SDS011;51601;51.356;12.458;2022-09-14T17:16:29;13.32;;;6.50;;
65033;SDS011;51601;51.356;12.458;2022-09-14T17:20:50;15.65;;;6.30;;
65033;SDS011;51601;51.356;12.458;2022-09-14T17:25:05;13.70;;;6.32;;
65033;SDS011;51601;51.356;12.458;2022-09-14T17:29:22;14.00;;;6.37;;
65033;SDS011;51601;51.356;12.458;2022-09-14T17:33:38;14.35;;;6.78;;
65033;SDS011;51601;51.356;12.458;2022-09-14T17:37:52;15.40;;;6.97;;
65033;SDS011;51601;51.356;12.458;2022-09-14T17:42:06;18.00;;;7.30;;
65033;SDS011;51601;51.356;12.458;2022-09-14T17:46:19;17.70;;;8.00;;
65033;SDS011;51601;51.356;12.458;2022-09-14T17:50:37;18.10;;;7.50;;
65033;SDS011;51601;51.356;12.458;2022-09-14T17:54:51;15.80;;;6.80;;
65033;SDS011;51601;51.356;12.458;2022-09-14T17:59:05;20.45;;;7.43;;
65033;SDS011;51601;51.356;12.458;2022-09-14T18:03:21;17.95;;;7.28;;
65033;SDS011;51601;51.356;12.458;2022-09-14T18:07:38;22.88;;;8.15;;
65033;SDS011;51601;51.356;12.458;2022-09-14T18:11:53;23.27;;;9.67;;
65033;SDS011;51601;51.356;12.458;2022-09-14T18:16:08;29.02;;;10.40;;
65033;SDS011;51601;51.356;12.458;2022-09-14T18:20:22;24.33;;;9.93;;
65033;SDS011;51601;51.356;12.458;2022-09-14T18:24:37;26.47;;;12.00;;
65033;SDS011;51601;51.356;12.458;2022-09-14T18:28:52;28.85;;;13.63;;
65033;SDS011;51601;51.356;12.458;2022-09-14T18:33:07;33.78;;;14.68;;
65033;SDS011;51601;51.356;12.458;2022-09-14T18:37:20;31.63;;;15.10;;
65033;SDS011;51601;51.356;12.458;2022-09-14T18:41:39;39.65;;;16.17;;
65033;SDS011;51601;51.356;12.458;2022-09-14T18:45:53;32.25;;;15.65;;
65033;SDS011;51601;51.356;12.458;2022-09-14T18:50:07;32.28;;;16.02;;
65033;SDS011;51601;51.356;12.458;2022-09-14T18:54:21;35.10;;;15.23;;
65033;SDS011;51601;51.356;12.458;2022-09-14T18:58:41;26.73;;;12.90;;
65033;SDS011;51601;51.356;12.458;2022-09-14T19:02:56;28.85;;;12.77;;
65033;SDS011;51601;51.356;12.458;2022-09-14T19:07:09;25.20;;;11.37;;
65033;SDS011;51601;51.356;12.458;2022-09-14T19:11:24;29.08;;;11.45;;
65033;SDS011;51601;51.356;12.458;2022-09-14T19:15:41;27.08;;;12.02;;
65033;SDS011;51601;51.356;12.458;2022-09-14T19:19:55;29.40;;;11.70;;
65033;SDS011;51601;51.356;12.458;2022-09-14T19:24:10;26.40;;;11.30;;
65033;SDS011;51601;51.356;12.458;2022-09-14T19:28:25;31.77;;;11.77;;
65033;SDS011;51601;51.356;12.458;2022-09-14T19:32:40;25.92;;;11.93;;
65033;SDS011;51601;51.356;12.458;2022-09-14T19:36:54;23.97;;;10.13;;
65033;SDS011;51601;51.356;12.458;2022-09-14T19:41:08;26.02;;;11.07;;
65033;SDS011;51601;51.356;12.458;2022-09-14T19:45:22;23.00;;;10.07;;
65033;SDS011;51601;51.356;12.458;2022-09-14T19:49:37;21.97;;;9.40;;
65033;SDS011;51601;51.356;12.458;2022-09-14T19:53:51;30.55;;;9.75;;
65033;SDS011;51601;51.356;12.458;2022-09-14T19:58:06;21.60;;;9.57;;
65033;SDS011;51601;51.356;12.458;2022-09-14T20:02:20;19.57;;;8.07;;
65033;SDS011;51601;51.356;12.458;2022-09-14T20:06:36;20.38;;;7.85;;
65033;SDS011;51601;51.356;12.458;2022-09-14T20:10:51;18.10;;;7.32;;
65033;SDS011;51601;51.356;12.458;2022-09-14T20:15:05;24.45;;;7.93;;
65033;SDS011;51601;51.356;12.458;2022-09-14T20:19:21;22.13;;;8.23;;
65033;SDS011;51601;51.356;12.458;2022-09-14T20:23:38;15.82;;;7.55;;
65033;SDS011;51601;51.356;12.458;2022-09-14T20:28:12;16.23;;;7.05;;
65033;SDS011;51601;51.356;12.458;2022-09-14T20:32:26;17.90;;;7.23;;
65033;SDS011;51601;51.356;12.458;2022-09-14T20:36:41;17.27;;;7.55;;
65033;SDS011;51601;51.356;12.458;2022-09-14T20:40:57;15.38;;;6.65;;
65033;SDS011;51601;51.356;12.458;2022-09-14T20:45:12;14.37;;;6.30;;
65033;SDS011;51601;51.356;12.458;2022-09-14T20:49:27;23.55;;;11.75;;
65033;SDS011;51601;51.356;12.458;2022-09-14T20:53:41;18.67;;;7.90;;
65033;SDS011;51601;51.356;12.458;2022-09-14T20:57:57;23.33;;;8.35;;
65033;SDS011;51601;51.356;12.458;2022-09-14T21:02:10;17.80;;;7.97;;
65033;SDS011;51601;51.356;12.458;2022-09-14T21:06:24;20.33;;;8.40;;
65033;SDS011;51601;51.356;12.458;2022-09-14T21:10:38;17.63;;;7.35;;
65033;SDS011;51601;51.356;12.458;2022-09-14T21:14:54;16.17;;;7.47;;
65033;SDS011;51601;51.356;12.458;2022-09-14T21:19:09;19.33;;;7.45;;
65033;SDS011;51601;51.356;12.458;2022-09-14T21:23:24;17.00;;;6.85;;
65033;SDS011;51601;51.356;12.458;2022-09-14T21:27:39;19.80;;;7.37;;
65033;SDS011;51601;51.356;12.458;2022-09-14T21:31:54;19.77;;;8.23;;
65033;SDS011;51601;51.356;12.458;2022-09-14T21:36:09;22.85;;;9.45;;
65033;SDS011;51601;51.356;12.458;2022-09-14T21:40:25;20.90;;;8.90;;
65033;SDS011;51601;51.356;12.458;2022-09-14T21:44:39;25.03;;;9.70;;
65033;SDS011;51601;51.356;12.458;2022-09-14T21:48:54;24.17;;;10.38;;
65033;SDS011;51601;51.356;12.458;2022-09-14T21:53:08;29.30;;;10.85;;
65033;SDS011;51601;51.356;12.458;2022-09-14T21:57:22;32.23;;;12.07;;
65033;SDS011;51601;51.356;12.458;2022-09-14T22:01:36;30.85;;;12.15;;
65033;SDS011;51601;51.356;12.458;2022-09-14T22:05:55;32.67;;;12.05;;
65033;SDS011;51601;51.356;12.458;2022-09-14T22:10:10;28.77;;;11.63;;
65033;SDS011;51601;51.356;12.458;2022-09-14T22:14:24;30.65;;;12.80;;
65033;SDS011;51601;51.356;12.458;2022-09-14T22:18:45;36.25;;;14.45;;
65033;SDS011;51601;51.356;12.458;2022-09-14T22:23:05;34.80;;;13.27;;
65033;SDS011;51601;51.356;12.458;2022-09-14T22:27:19;35.57;;;13.90;;
65033;SDS011;51601;51.356;12.458;2022-09-14T22:31:33;33.78;;;12.45;;
65033;SDS011;51601;51.356;12.458;2022-09-14T22:35:50;32.35;;;12.20;;
65033;SDS011;51601;51.356;12.458;2022-09-14T22:40:07;29.07;;;11.87;;
65033;SDS011;51601;51.356;12.458;2022-09-14T22:44:22;25.08;;;11.35;;
65033;SDS011;51601;51.356;12.458;2022-09-14T22:48:36;29.67;;;11.57;;
65033;SDS011;51601;51.356;12.458;2022-09-14T22:52:50;32.30;;;12.00;;
65033;SDS011;51601;51.356;12.458;2022-09-14T22:57:05;32.35;;;12.35;;
65033;SDS011;51601;51.356;12.458;2022-09-14T23:01:20;35.20;;;13.30;;
65033;SDS011;51601;51.356;12.458;2022-09-14T23:05:36;29.95;;;12.18;;
65033;SDS011;51601;51.356;12.458;2022-09-14T23:09:50;31.33;;;12.30;;
65033;SDS011;51601;51.356;12.458;2022-09-14T23:14:05;37.08;;;12.73;;
65033;SDS011;51601;51.356;12.458;2022-09-14T23:18:19;33.05;;;11.68;;
65033;SDS011;51601;51.356;12.458;2022-09-14T23:22:34;32.60;;;11.27;;
65033;SDS011;51601;51.356;12.458;2022-09-14T23:26:47;37.03;;;12.32;;
65033;SDS011;51601;51.356;12.458;2022-09-14T23:31:03;32.10;;;12.13;;
65033;SDS011;51601;51.356;12.458;2022-09-14T23:35:17;31.27;;;10.57;;
65033;SDS011;51601;51.356;12.458;2022-09-14T23:39:31;34.22;;;11.50;;
65033;SDS011;51601;51.356;12.458;2022-09-14T23:43:45;33.90;;;11.40;;
65033;SDS011;51601;51.356;12.458;2022-09-14T23:48:00;32.90;;;11.85;;
65033;SDS011;51601;51.356;12.458;2022-09-14T23:52:15;30.00;;;10.87;;
65033;SDS011;51601;51.356;12.458;2022-09-14T23:56:28;36.05;;;11.52;;
